Time;durP1;ratioP1;P1;durP2;ratioP2;P2;SDS_P1;SDS_P2;PMS_P1;PMS_P2;Temp;Humidity;BMP_temperature;BMP_pressure;BME280_temperature;BME280_humidity;BME280_pressure;Samples;Min_cycle;Max_cycle;Signal;HPM_P1;HPM_P2
2022/09/13 00:02:01;;;;;;;4.90;1.88;;;;;;;;;;5025123;28;20038;-70
2022/09/13 00:04:27;;;;;;;2.08;1.45;;;;;;;;;;5028773;28;20080;-70
2022/09/13 00:06:54;;;;;;;2.63;1.55;;;;;;;;;;5043014;28;20423;-70
2022/09/13 00:09:20;;;;;;;2.75;1.70;;;;;;;;;;5043808;28;20405;-70
2022/09/13 00:11:46;;;;;;;3.70;2.20;;;;;;;;;;5010872;28;20084;-70
2022/09/13 00:14:12;;;;;;;4.43;2.33;;;;;;;;;;5024053;28;20815;-70
2022/09/13 00:16:38;;;;;;;3.88;1.67;;;;;;;;;;5027124;28;20045;-70
2022/09/13 00:19:04;;;;;;;3.20;1.45;;;;;;;;;;5028088;28;20048;-70
2022/09/13 00:21:31;;;;;;;2.85;1.77;;;;;;;;;;5060305;28;20045;-70
2022/09/13 00:23:57;;;;;;;3.35;2.05;;;;;;;;;;5055010;28;20125;-70
2022/09/13 00:26:27;;;;;;;5.93;1.98;;;;;;;;;;5062921;28;20041;-70
2022/09/13 00:28:55;;;;;;;2.95;2.10;;;;;;;;;;5054377;28;20045;-70
2022/09/13 00:31:23;;;;;;;2.17;1.60;;;;;;;;;;5061457;28;20057;-70
2022/09/13 00:33:49;;;;;;;1.55;1.27;;;;;;;;;;5058174;28;20033;-70
2022/09/13 00:36:15;;;;;;;2.55;1.83;;;;;;;;;;5063147;28;20618;-70
2022/09/13 00:38:42;;;;;;;3.20;1.50;;;;;;;;;;5061616;28;20052;-70
2022/09/13 00:41:10;;;;;;;2.55;1.75;;;;;;;;;;5053632;28;20044;-70
2022/09/13 00:43:55;;;;;;;3.83;1.85;;;;;;;;;;5064954;28;20132;-70
2022/09/13 00:46:25;;;;;;;4.95;1.95;;;;;;;;;;5054690;28;20041;-70
2022/09/13 00:48:55;;;;;;;2.58;1.42;;;;;;;;;;5062137;28;20053;-70
2022/09/13 00:51:21;;;;;;;4.53;3.05;;;;;;;;;;5062494;28;20036;-70
2022/09/13 00:53:50;;;;;;;4.38;1.63;;;;;;;;;;5053415;28;20037;-70
2022/09/13 00:56:40;;;;;;;7.53;2.53;;;;;;;;;;5051824;28;20696;-71
2022/09/13 00:59:08;;;;;;;3.70;1.88;;;;;;;;;;5040920;28;20057;-70
2022/09/13 01:01:41;;;;;;;5.75;1.50;;;;;;;;;;5051892;28;20033;-70
2022/09/13 01:04:07;;;;;;;2.97;1.75;;;;;;;;;;5054136;28;20044;-70
2022/09/13 01:06:36;;;;;;;4.60;2.47;;;;;;;;;;5061974;28;20041;-70
2022/09/13 01:09:02;;;;;;;2.08;1.63;;;;;;;;;;5061826;28;20253;-69
2022/09/13 01:11:36;;;;;;;2.88;1.77;;;;;;;;;;5053058;28;20045;-70
2022/09/13 01:14:02;;;;;;;3.03;2.10;;;;;;;;;;5061306;28;20079;-70
2022/09/13 01:16:28;;;;;;;4.53;1.70;;;;;;;;;;5061264;28;20884;-70
2022/09/13 01:18:55;;;;;;;2.55;1.58;;;;;;;;;;5052047;28;20045;-70
2022/09/13 01:21:34;;;;;;;2.25;1.60;;;;;;;;;;5060050;28;21530;-70
2022/09/13 01:24:19;;;;;;;3.30;1.58;;;;;;;;;;5059332;28;20037;-70
2022/09/13 01:27:04;;;;;;;2.38;1.83;;;;;;;;;;5049972;28;20077;-70
2022/09/13 01:29:48;;;;;;;2.55;1.67;;;;;;;;;;5048209;28;20041;-70
2022/09/13 01:32:34;;;;;;;2.58;1.65;;;;;;;;;;5059393;28;20041;-70
2022/09/13 01:35:03;;;;;;;3.15;2.28;;;;;;;;;;5050357;28;20038;-70
2022/09/13 01:37:37;;;;;;;5.70;1.98;;;;;;;;;;5060463;28;20048;-71
2022/09/13 01:40:04;;;;;;;2.38;1.65;;;;;;;;;;5052074;28;20032;-70
2022/09/13 01:42:30;;;;;;;4.10;2.20;;;;;;;;;;5057849;28;20045;-70
2022/09/13 01:45:05;;;;;;;2.25;1.52;;;;;;;;;;5060939;28;20044;-70
2022/09/13 01:47:38;;;;;;;3.05;1.75;;;;;;;;;;5057963;28;20055;-70
2022/09/13 01:50:19;;;;;;;5.80;2.40;;;;;;;;;;5048770;28;20069;-71
2022/09/13 01:52:45;;;;;;;2.80;1.73;;;;;;;;;;5048887;28;20069;-70
2022/09/13 01:55:11;;;;;;;3.35;1.45;;;;;;;;;;5056141;28;20044;-70
2022/09/13 01:57:40;;;;;;;3.83;1.77;;;;;;;;;;5050070;28;20120;-70
2022/09/13 02:00:11;;;;;;;3.00;1.55;;;;;;;;;;5062113;28;20049;-70
2022/09/13 02:02:42;;;;;;;3.20;1.85;;;;;;;;;;5056453;28;20531;-70
2022/09/13 02:05:12;;;;;;;4.72;1.95;;;;;;;;;;5049924;28;20041;-70
2022/09/13 02:07:41;;;;;;;4.10;1.52;;;;;;;;;;5054170;28;20612;-70
2022/09/13 02:10:10;;;;;;;4.45;1.77;;;;;;;;;;5041530;28;20041;-70
2022/09/13 02:12:37;;;;;;;3.80;2.35;;;;;;;;;;5062469;28;20072;-70
2022/09/13 02:15:09;;;;;;;4.18;2.13;;;;;;;;;;5046413;28;20044;-70
2022/09/13 02:17:38;;;;;;;4.10;2.38;;;;;;;;;;5063497;28;20055;-70
2022/09/13 02:20:07;;;;;;;5.25;1.92;;;;;;;;;;5052171;28;20058;-70
2022/09/13 02:22:35;;;;;;;6.72;2.35;;;;;;;;;;5074140;28;20556;-70
2022/09/13 02:25:07;;;;;;;6.90;3.22;;;;;;;;;;5071484;28;20550;-70
2022/09/13 02:27:34;;;;;;;4.43;2.58;;;;;;;;;;5071322;28;20044;-70
2022/09/13 02:30:11;;;;;;;7.57;3.00;;;;;;;;;;5073063;28;20052;-70
2022/09/13 02:32:43;;;;;;;9.63;1.88;;;;;;;;;;5072826;28;20601;-70
2022/09/13 02:35:27;;;;;;;4.10;2.00;;;;;;;;;;5076799;28;20127;-70
2022/09/13 02:37:57;;;;;;;4.70;2.10;;;;;;;;;;5070531;28;20037;-70
2022/09/13 02:40:27;;;;;;;5.88;2.05;;;;;;;;;;5071403;28;20045;-72
2022/09/13 02:42:57;;;;;;;5.97;2.00;;;;;;;;;;5072298;28;20040;-70
2022/09/13 02:45:27;;;;;;;5.20;2.55;;;;;;;;;;5069788;28;20041;-70
2022/09/13 02:47:56;;;;;;;3.38;2.13;;;;;;;;;;5069485;28;20128;-70
2022/09/13 02:50:32;;;;;;;3.05;1.83;;;;;;;;;;5073228;28;20043;-70
2022/09/13 02:53:01;;;;;;;6.70;1.92;;;;;;;;;;5074471;28;20403;-70
2022/09/13 02:55:39;;;;;;;4.25;2.00;;;;;;;;;;5056671;28;20044;-70
2022/09/13 02:58:18;;;;;;;4.25;2.13;;;;;;;;;;5074971;28;20052;-70
2022/09/13 03:00:45;;;;;;;2.75;1.73;;;;;;;;;;5074241;28;20048;-70
2022/09/13 03:03:13;;;;;;;3.92;1.75;;;;;;;;;;5074350;28;20040;-70
2022/09/13 03:05:39;;;;;;;2.20;1.33;;;;;;;;;;5073620;28;20102;-70
2022/09/13 03:08:09;;;;;;;3.40;1.58;;;;;;;;;;5073948;28;20036;-71
2022/09/13 03:10:55;;;;;;;3.80;2.78;;;;;;;;;;5072412;28;20532;-70
2022/09/13 03:13:40;;;;;;;3.40;1.42;;;;;;;;;;5055445;28;20055;-70
2022/09/13 03:16:24;;;;;;;2.60;1.60;;;;;;;;;;5073379;28;20036;-70
2022/09/13 03:19:14;;;;;;;3.15;1.70;;;;;;;;;;5074235;28;20119;-70
2022/09/13 03:21:43;;;;;;;3.42;1.83;;;;;;;;;;5072479;28;21361;-70
2022/09/13 03:24:27;;;;;;;4.18;1.65;;;;;;;;;;5073587;28;20070;-70
2022/09/13 03:27:03;;;;;;;3.80;2.00;;;;;;;;;;5075201;28;21232;-71
2022/09/13 03:29:35;;;;;;;2.67;1.90;;;;;;;;;;5072268;28;20040;-70
2022/09/13 03:32:07;;;;;;;4.35;1.60;;;;;;;;;;5072836;28;20051;-70
2022/09/13 03:34:43;;;;;;;3.45;1.63;;;;;;;;;;5072592;28;20048;-70
2022/09/13 03:37:09;;;;;;;2.63;1.50;;;;;;;;;;5073945;28;20055;-70
2022/09/13 03:39:39;;;;;;;2.70;1.80;;;;;;;;;;5073257;28;20052;-70
2022/09/13 03:42:10;;;;;;;4.95;1.70;;;;;;;;;;5074070;28;20544;-69
2022/09/13 03:44:37;;;;;;;1.80;1.50;;;;;;;;;;5074593;28;20055;-70
2022/09/13 03:47:04;;;;;;;1.77;1.20;;;;;;;;;;5072492;28;20045;-70
2022/09/13 03:49:31;;;;;;;2.35;1.48;;;;;;;;;;5073288;28;20041;-69
2022/09/13 03:51:58;;;;;;;2.53;1.50;;;;;;;;;;5071499;28;20080;-70
2022/09/13 03:54:26;;;;;;;6.43;2.65;;;;;;;;;;5074053;28;20040;-70
2022/09/13 03:57:11;;;;;;;2.25;1.30;;;;;;;;;;5071601;28;20068;-70
2022/09/13 03:59:39;;;;;;;6.35;2.00;;;;;;;;;;5074889;28;20037;-70
2022/09/13 04:02:10;;;;;;;2.20;1.52;;;;;;;;;;5092535;28;20150;-70
2022/09/13 04:04:36;;;;;;;3.33;1.98;;;;;;;;;;5071754;28;20088;-70
2022/09/13 04:07:03;;;;;;;2.90;1.63;;;;;;;;;;5065244;28;20036;-70
2022/09/13 04:09:30;;;;;;;8.75;3.50;;;;;;;;;;5076656;28;20147;-70
2022/09/13 04:11:56;;;;;;;2.67;1.60;;;;;;;;;;5074133;28;20044;-70
2022/09/13 04:14:25;;;;;;;2.40;1.58;;;;;;;;;;5072766;28;21900;-71
2022/09/13 04:16:51;;;;;;;3.17;1.65;;;;;;;;;;5053566;28;21274;-70
2022/09/13 04:19:17;;;;;;;2.00;1.45;;;;;;;;;;5070149;28;20036;-69
2022/09/13 04:21:44;;;;;;;2.35;1.73;;;;;;;;;;5073448;28;20053;-70
2022/09/13 04:24:10;;;;;;;3.05;1.50;;;;;;;;;;5073607;28;20070;-70
2022/09/13 04:26:36;;;;;;;2.30;1.77;;;;;;;;;;5072971;28;20045;-69
2022/09/13 04:29:02;;;;;;;2.58;1.70;;;;;;;;;;5072289;28;20041;-69
2022/09/13 04:31:28;;;;;;;2.58;1.42;;;;;;;;;;5073569;28;20036;-70
2022/09/13 04:33:54;;;;;;;2.03;1.50;;;;;;;;;;5072657;28;20132;-70
2022/09/13 04:36:21;;;;;;;3.92;2.20;;;;;;;;;;5068469;28;20110;-69
2022/09/13 04:38:47;;;;;;;2.50;1.33;;;;;;;;;;5068557;28;20036;-70
2022/09/13 04:41:15;;;;;;;7.22;1.50;;;;;;;;;;5065549;28;20036;-69
2022/09/13 04:43:41;;;;;;;3.85;1.52;;;;;;;;;;5073315;28;20951;-70
2022/09/13 04:46:07;;;;;;;2.45;1.90;;;;;;;;;;5072043;28;20041;-70
2022/09/13 04:48:33;;;;;;;4.20;1.60;;;;;;;;;;5066582;28;20064;-69
2022/09/13 04:51:03;;;;;;;3.67;2.05;;;;;;;;;;5069760;28;20094;-69
2022/09/13 04:53:30;;;;;;;5.47;1.52;;;;;;;;;;5070421;28;20040;-69
2022/09/13 04:56:03;;;;;;;4.35;1.75;;;;;;;;;;5071487;28;20044;-69
2022/09/13 04:58:29;;;;;;;4.25;2.08;;;;;;;;;;5073638;28;20040;-69
2022/09/13 05:01:05;;;;;;;2.10;1.40;;;;;;;;;;5071535;28;20044;-69
2022/09/13 05:03:32;;;;;;;2.72;2.00;;;;;;;;;;5071940;28;20057;-69
2022/09/13 05:06:05;;;;;;;2.60;1.60;;;;;;;;;;5070696;28;20101;-73
2022/09/13 05:08:32;;;;;;;1.92;1.33;;;;;;;;;;5074630;28;20135;-69
2022/09/13 05:10:58;;;;;;;3.97;2.22;;;;;;;;;;5069927;28;20099;-70
2022/09/13 05:13:25;;;;;;;1.67;1.35;;;;;;;;;;5071085;28;20029;-70
2022/09/13 05:16:04;;;;;;;8.32;1.77;;;;;;;;;;5042093;28;20049;-73
2022/09/13 05:18:34;;;;;;;3.40;1.48;;;;;;;;;;5063432;28;20044;-76
2022/09/13 05:21:01;;;;;;;2.58;1.70;;;;;;;;;;5081092;28;20037;-72
2022/09/13 05:23:28;;;;;;;3.78;1.50;;;;;;;;;;5063984;28;20040;-71
2022/09/13 05:25:55;;;;;;;4.00;1.95;;;;;;;;;;5067783;28;20075;-71
2022/09/13 05:28:22;;;;;;;7.35;2.35;;;;;;;;;;5072118;28;20049;-71
2022/09/13 05:30:58;;;;;;;2.33;1.42;;;;;;;;;;5061678;28;20044;-71
2022/09/13 05:33:25;;;;;;;2.55;1.40;;;;;;;;;;5066117;28;20090;-70
2022/09/13 05:35:51;;;;;;;2.95;1.50;;;;;;;;;;5067140;28;20533;-70
2022/09/13 05:38:17;;;;;;;2.60;1.73;;;;;;;;;;5069823;28;20032;-71
2022/09/13 05:40:44;;;;;;;3.38;2.42;;;;;;;;;;5064813;28;20040;-71
2022/09/13 05:43:12;;;;;;;2.70;1.55;;;;;;;;;;5063516;28;20463;-70
2022/09/13 05:45:39;;;;;;;3.28;1.80;;;;;;;;;;5066491;28;20123;-71
2022/09/13 05:48:05;;;;;;;3.38;1.60;;;;;;;;;;5067187;28;20041;-71
2022/09/13 05:50:31;;;;;;;4.55;1.70;;;;;;;;;;5067902;28;20457;-71
2022/09/13 05:52:57;;;;;;;3.40;1.50;;;;;;;;;;5071429;28;20048;-71
2022/09/13 05:55:23;;;;;;;5.57;1.73;;;;;;;;;;5070573;28;20621;-71
2022/09/13 05:57:50;;;;;;;4.05;2.17;;;;;;;;;;5073200;28;20127;-72
2022/09/13 06:00:17;;;;;;;2.80;1.92;;;;;;;;;;5066309;28;20044;-72
2022/09/13 06:02:43;;;;;;;4.47;1.90;;;;;;;;;;5066487;28;20053;-73
2022/09/13 06:05:10;;;;;;;1.85;1.48;;;;;;;;;;5067282;28;20033;-74
2022/09/13 06:07:41;;;;;;;2.60;1.60;;;;;;;;;;5063936;28;20580;-75
2022/09/13 06:10:08;;;;;;;2.47;1.88;;;;;;;;;;5069970;28;20044;-73
2022/09/13 06:12:34;;;;;;;6.95;2.08;;;;;;;;;;5071331;28;20059;-71
2022/09/13 06:15:00;;;;;;;2.25;1.60;;;;;;;;;;5071010;28;20127;-73
2022/09/13 06:17:29;;;;;;;8.48;1.77;;;;;;;;;;5070186;28;20084;-72
2022/09/13 06:19:55;;;;;;;3.67;1.95;;;;;;;;;;5065980;28;20051;-72
2022/09/13 06:22:22;;;;;;;1.98;1.35;;;;;;;;;;5064934;28;20139;-72
2022/09/13 06:24:48;;;;;;;6.50;2.38;;;;;;;;;;5069355;28;20058;-73
2022/09/13 06:27:14;;;;;;;4.25;2.00;;;;;;;;;;5063566;28;20036;-72
2022/09/13 06:29:44;;;;;;;2.40;1.65;;;;;;;;;;5066312;28;20560;-72
2022/09/13 06:32:10;;;;;;;3.30;1.30;;;;;;;;;;5068794;28;20072;-73
2022/09/13 06:34:36;;;;;;;6.90;1.63;;;;;;;;;;5067833;28;20037;-72
2022/09/13 06:37:02;;;;;;;13.63;3.08;;;;;;;;;;5058590;28;20049;-71
2022/09/13 06:39:30;;;;;;;3.72;1.80;;;;;;;;;;5066133;28;20072;-72
2022/09/13 06:41:56;;;;;;;3.63;1.65;;;;;;;;;;5068292;28;20041;-72
2022/09/13 06:44:23;;;;;;;8.25;1.75;;;;;;;;;;5068535;28;20046;-67
2022/09/13 06:46:49;;;;;;;4.00;2.05;;;;;;;;;;5064254;28;20052;-67
2022/09/13 06:49:15;;;;;;;6.75;2.05;;;;;;;;;;5074967;28;20190;-68
2022/09/13 06:51:41;;;;;;;10.70;1.90;;;;;;;;;;5075235;28;20516;-67
2022/09/13 06:54:08;;;;;;;5.18;1.63;;;;;;;;;;5068526;28;20047;-67
2022/09/13 06:56:35;;;;;;;4.70;2.00;;;;;;;;;;5075495;28;20037;-67
2022/09/13 06:59:03;;;;;;;5.45;1.35;;;;;;;;;;5067210;28;20537;-67
2022/09/13 07:01:31;;;;;;;6.93;2.03;;;;;;;;;;5075663;28;20102;-68
2022/09/13 07:04:01;;;;;;;4.55;1.92;;;;;;;;;;5077390;28;20044;-67
2022/09/13 07:06:29;;;;;;;5.70;1.60;;;;;;;;;;5093046;28;20087;-68
2022/09/13 07:08:57;;;;;;;3.75;1.92;;;;;;;;;;5076735;28;20088;-69
2022/09/13 07:11:24;;;;;;;8.77;2.28;;;;;;;;;;5076839;28;20131;-69
2022/09/13 07:13:54;;;;;;;6.50;2.22;;;;;;;;;;5075629;28;20873;-69
2022/09/13 07:16:22;;;;;;;3.90;1.77;;;;;;;;;;5076084;28;20542;-69
2022/09/13 07:18:52;;;;;;;6.13;2.25;;;;;;;;;;5075301;28;20048;-68
2022/09/13 07:21:18;;;;;;;5.85;2.00;;;;;;;;;;5076002;28;20180;-68
2022/09/13 07:23:44;;;;;;;6.72;2.78;;;;;;;;;;5075249;28;20043;-69
2022/09/13 07:26:10;;;;;;;2.75;1.55;;;;;;;;;;5076492;28;20044;-69
2022/09/13 07:28:37;;;;;;;7.47;3.65;;;;;;;;;;5075945;28;20052;-68
2022/09/13 07:31:13;;;;;;;5.50;2.47;;;;;;;;;;5075033;28;20032;-68
2022/09/13 07:33:40;;;;;;;4.57;1.92;;;;;;;;;;5075980;28;20048;-69
2022/09/13 07:36:07;;;;;;;16.27;3.78;;;;;;;;;;5075261;28;20151;-69
2022/09/13 07:38:36;;;;;;;14.35;5.05;;;;;;;;;;5076545;28;20526;-68
2022/09/13 07:41:05;;;;;;;20.95;5.20;;;;;;;;;;5076664;28;20227;-68
2022/09/13 07:43:31;;;;;;;11.45;3.53;;;;;;;;;;5077759;28;20037;-69
2022/09/13 07:45:58;;;;;;;5.63;2.50;;;;;;;;;;5077459;28;20538;-68
2022/09/13 07:48:25;;;;;;;5.65;2.35;;;;;;;;;;5076552;28;20045;-69
2022/09/13 07:50:59;;;;;;;5.07;2.83;;;;;;;;;;5073194;28;20048;-69
2022/09/13 07:53:25;;;;;;;6.32;2.72;;;;;;;;;;5058598;28;20506;-68
2022/09/13 07:55:51;;;;;;;14.48;3.50;;;;;;;;;;5076100;28;20083;-69
2022/09/13 07:58:17;;;;;;;11.63;3.28;;;;;;;;;;5074726;28;20052;-69
2022/09/13 08:00:43;;;;;;;3.20;1.90;;;;;;;;;;5077442;28;20036;-68
2022/09/13 08:03:11;;;;;;;4.47;1.80;;;;;;;;;;5074104;28;20102;-69
2022/09/13 08:05:41;;;;;;;5.72;2.13;;;;;;;;;;5074402;28;21033;-69
2022/09/13 08:08:07;;;;;;;3.42;2.20;;;;;;;;;;5091157;28;20102;-69
2022/09/13 08:10:34;;;;;;;2.40;1.42;;;;;;;;;;5077694;28;20045;-69
2022/09/13 08:13:00;;;;;;;3.60;1.92;;;;;;;;;;5067898;28;20117;-69
2022/09/13 08:15:26;;;;;;;2.58;1.75;;;;;;;;;;5076327;28;20551;-69
2022/09/13 08:17:53;;;;;;;5.68;1.88;;;;;;;;;;5072462;28;20049;-68
2022/09/13 08:20:19;;;;;;;3.70;2.03;;;;;;;;;;5058643;28;20183;-69
2022/09/13 08:22:45;;;;;;;5.60;2.95;;;;;;;;;;5074752;28;20453;-69
2022/09/13 08:25:11;;;;;;;3.67;1.90;;;;;;;;;;5075456;28;20845;-68
2022/09/13 08:27:37;;;;;;;4.05;1.90;;;;;;;;;;5076049;28;20139;-68
2022/09/13 08:30:04;;;;;;;3.95;1.83;;;;;;;;;;5074221;28;20089;-69
2022/09/13 08:32:30;;;;;;;5.47;2.10;;;;;;;;;;5072207;28;20558;-69
2022/09/13 08:34:56;;;;;;;5.03;1.90;;;;;;;;;;5075123;28;20048;-68
2022/09/13 08:37:22;;;;;;;3.60;1.60;;;;;;;;;;5075031;28;20044;-69
2022/09/13 08:39:49;;;;;;;2.75;1.80;;;;;;;;;;5074647;28;20040;-68
2022/09/13 08:42:17;;;;;;;2.20;1.40;;;;;;;;;;5075800;28;20442;-68
2022/09/13 08:45:02;;;;;;;5.30;1.80;;;;;;;;;;5075003;28;20094;-68
2022/09/13 08:47:42;;;;;;;9.38;3.05;;;;;;;;;;5073988;28;20080;-69
2022/09/13 08:50:11;;;;;;;5.25;1.88;;;;;;;;;;5076268;28;20044;-69
2022/09/13 08:52:46;;;;;;;4.65;1.77;;;;;;;;;;5077135;28;20033;-69
2022/09/13 08:55:31;;;;;;;4.82;1.70;;;;;;;;;;5074520;28;20715;-69
2022/09/13 08:58:01;;;;;;;2.83;1.55;;;;;;;;;;5073446;28;20076;-69
2022/09/13 09:00:46;;;;;;;3.33;1.73;;;;;;;;;;5075437;28;20593;-69
2022/09/13 09:03:12;;;;;;;5.03;2.45;;;;;;;;;;5074554;28;20048;-69
2022/09/13 09:05:49;;;;;;;4.10;1.70;;;;;;;;;;5071969;28;21436;-69
2022/09/13 09:08:30;;;;;;;5.47;1.65;;;;;;;;;;5075177;28;20151;-69
2022/09/13 09:10:56;;;;;;;5.97;1.63;;;;;;;;;;5072875;28;20048;-69
2022/09/13 09:13:30;;;;;;;11.35;3.70;;;;;;;;;;5073445;28;20033;-69
2022/09/13 09:16:05;;;;;;;7.97;2.25;;;;;;;;;;5073297;28;20044;-69
2022/09/13 09:18:37;;;;;;;7.25;2.78;;;;;;;;;;5072955;28;20052;-69
2022/09/13 09:21:03;;;;;;;8.25;2.40;;;;;;;;;;5072827;28;20049;-69
2022/09/13 09:24:05;;;;;;;7.60;2.53;;;;;;;;;;5074142;28;20033;-69
2022/09/13 09:26:31;;;;;;;20.48;3.90;;;;;;;;;;4980412;28;20133;-69
2022/09/13 09:29:16;;;;;;;22.00;3.47;;;;;;;;;;5076002;28;20107;-69
2022/09/13 09:31:45;;;;;;;14.35;3.78;;;;;;;;;;5073827;28;20131;-69
2022/09/13 09:34:26;;;;;;;2.65;1.90;;;;;;;;;;5072734;28;20055;-69
2022/09/13 09:37:07;;;;;;;5.32;1.77;;;;;;;;;;5075119;28;20110;-69
2022/09/13 09:39:37;;;;;;;3.05;1.67;;;;;;;;;;5073820;28;20538;-69
2022/09/13 09:42:04;;;;;;;13.48;2.83;;;;;;;;;;5074127;28;20524;-69
2022/09/13 09:44:32;;;;;;;8.93;1.80;;;;;;;;;;5073461;28;20051;-69
2022/09/13 09:47:02;;;;;;;3.30;2.15;;;;;;;;;;5073194;28;20052;-69
2022/09/13 09:52:14;;;;;;;2.53;1.50;;;;;;;;;;5075050;28;20060;-69
2022/09/13 09:54:40;;;;;;;12.80;2.58;;;;;;;;;;5069972;28;20189;-68
2022/09/13 09:57:07;;;;;;;8.90;3.05;;;;;;;;;;5071972;28;20044;-69
2022/09/13 09:59:34;;;;;;;5.53;2.03;;;;;;;;;;5071385;28;20048;-69
2022/09/13 10:02:06;;;;;;;2.42;1.70;;;;;;;;;;5072407;28;20087;-69
2022/09/13 10:04:32;;;;;;;;;;;;;;;;;;5076778;28;20043;-68
2022/09/13 10:07:09;;;;;;;3.53;1.80;;;;;;;;;;5066560;28;19926;-69
2022/09/13 10:09:37;;;;;;;5.70;1.98;;;;;;;;;;5073402;28;20438;-69
2022/09/13 10:12:04;;;;;;;6.22;1.73;;;;;;;;;;5071402;28;20480;-69
2022/09/13 10:14:41;;;;;;;7.50;2.83;;;;;;;;;;5073743;28;20107;-69
2022/09/13 10:17:22;;;;;;;5.65;2.25;;;;;;;;;;5072529;28;20040;-69
2022/09/13 10:19:53;;;;;;;7.55;2.15;;;;;;;;;;5077681;28;20072;-68
2022/09/13 10:22:19;;;;;;;10.63;2.55;;;;;;;;;;5076659;28;20163;-69
2022/09/13 10:24:45;;;;;;;3.70;1.58;;;;;;;;;;5074815;28;20152;-69
2022/09/13 10:27:27;;;;;;;7.30;1.92;;;;;;;;;;5074725;28;20045;-68
2022/09/13 10:29:58;;;;;;;4.00;2.10;;;;;;;;;;5076791;28;20070;-69
2022/09/13 10:32:24;;;;;;;8.27;1.75;;;;;;;;;;5078788;28;20094;-69
2022/09/13 10:34:51;;;;;;;4.88;1.98;;;;;;;;;;5074946;28;20049;-69
2022/09/13 10:37:21;;;;;;;5.80;2.40;;;;;;;;;;5076279;28;20045;-69
2022/09/13 10:39:52;;;;;;;9.13;1.90;;;;;;;;;;5075941;28;21082;-69
2022/09/13 10:42:20;;;;;;;6.97;2.47;;;;;;;;;;5075790;28;20139;-69
2022/09/13 10:44:52;;;;;;;3.35;1.77;;;;;;;;;;5050853;28;20924;-69
2022/09/13 10:47:23;;;;;;;5.18;1.83;;;;;;;;;;5065422;28;20065;-74
2022/09/13 10:49:56;;;;;;;3.70;1.63;;;;;;;;;;5073065;28;20703;-71
2022/09/13 10:52:33;;;;;;;5.60;1.63;;;;;;;;;;5077173;28;20037;-71
2022/09/13 10:55:18;;;;;;;9.93;3.83;;;;;;;;;;5075056;28;20049;-70
2022/09/13 10:57:45;;;;;;;6.75;2.00;;;;;;;;;;5089296;28;20060;-71
2022/09/13 11:00:12;;;;;;;7.18;2.50;;;;;;;;;;5074984;28;20098;-71
2022/09/13 11:02:38;;;;;;;4.30;2.03;;;;;;;;;;5075528;28;20036;-71
2022/09/13 11:05:13;;;;;;;3.10;1.88;;;;;;;;;;5072181;28;21449;-69
2022/09/13 11:08:02;;;;;;;6.07;2.10;;;;;;;;;;5074551;28;20090;-70
2022/09/13 11:10:35;;;;;;;8.02;2.22;;;;;;;;;;5024264;28;20057;-70
2022/09/13 11:13:07;;;;;;;5.53;2.53;;;;;;;;;;5070234;28;20041;-70
2022/09/13 11:15:45;;;;;;;5.57;2.25;;;;;;;;;;5069932;28;20108;-70
2022/09/13 11:18:26;;;;;;;4.60;2.10;;;;;;;;;;5068688;28;20040;-70
2022/09/13 11:21:16;;;;;;;3.92;2.05;;;;;;;;;;5073128;28;20141;-70
2022/09/13 11:23:46;;;;;;;3.17;1.60;;;;;;;;;;5076399;28;20044;-70
2022/09/13 11:26:32;;;;;;;4.72;2.53;;;;;;;;;;5075729;28;20044;-70
2022/09/13 11:28:58;;;;;;;3.88;1.98;;;;;;;;;;5068507;28;20079;-70
2022/09/13 11:31:33;;;;;;;8.60;2.33;;;;;;;;;;5072113;28;20072;-70
2022/09/13 11:34:18;;;;;;;6.07;2.58;;;;;;;;;;5070220;28;20048;-70
2022/09/13 11:37:03;;;;;;;5.97;1.95;;;;;;;;;;5073154;28;20053;-70
2022/09/13 11:39:37;;;;;;;3.78;2.10;;;;;;;;;;5073938;28;20075;-69
2022/09/13 11:42:06;;;;;;;5.07;1.65;;;;;;;;;;5073078;28;20045;-69
2022/09/13 11:44:35;;;;;;;4.95;1.50;;;;;;;;;;5071816;28;20116;-70
2022/09/13 11:47:05;;;;;;;3.70;1.85;;;;;;;;;;5071072;28;20114;-70
2022/09/13 11:49:45;;;;;;;4.93;2.13;;;;;;;;;;5074307;28;20129;-70
2022/09/13 11:52:21;;;;;;;4.07;1.90;;;;;;;;;;5075588;28;20121;-70
2022/09/13 11:55:07;;;;;;;5.20;2.42;;;;;;;;;;5074202;28;20048;-70
2022/09/13 11:57:35;;;;;;;5.20;2.60;;;;;;;;;;5072366;28;20040;-71
2022/09/13 12:00:21;;;;;;;7.82;1.92;;;;;;;;;;5074879;28;20040;-70
2022/09/13 12:03:03;;;;;;;3.97;1.80;;;;;;;;;;5072293;28;20047;-70
2022/09/13 12:05:32;;;;;;;10.60;2.42;;;;;;;;;;5074962;28;20044;-70
2022/09/13 12:07:58;;;;;;;11.15;3.45;;;;;;;;;;5074778;28;20048;-70
2022/09/13 12:10:27;;;;;;;15.73;4.63;;;;;;;;;;5074012;28;20036;-70
2022/09/13 12:12:54;;;;;;;7.90;2.67;;;;;;;;;;5074531;28;20045;-70
2022/09/13 12:15:41;;;;;;;3.70;1.85;;;;;;;;;;5075754;28;20048;-70
2022/09/13 12:18:14;;;;;;;4.90;2.03;;;;;;;;;;5076607;28;20048;-70
2022/09/13 12:20:48;;;;;;;6.30;1.77;;;;;;;;;;5067596;28;20100;-70
2022/09/13 12:23:17;;;;;;;3.78;1.98;;;;;;;;;;5066936;28;20094;-70
2022/09/13 12:25:49;;;;;;;6.72;1.90;;;;;;;;;;5066793;28;20523;-70
2022/09/13 12:28:24;;;;;;;4.40;2.00;;;;;;;;;;5067342;28;20137;-70
2022/09/13 12:30:59;;;;;;;4.57;1.90;;;;;;;;;;5037173;28;20037;-70
2022/09/13 12:33:25;;;;;;;6.55;2.10;;;;;;;;;;5068449;28;20060;-70
2022/09/13 12:36:03;;;;;;;5.90;2.10;;;;;;;;;;5067306;28;20046;-70
2022/09/13 12:38:38;;;;;;;8.23;2.70;;;;;;;;;;5068551;28;20037;-70
2022/09/13 12:41:20;;;;;;;5.30;2.03;;;;;;;;;;5033766;28;20091;-69
2022/09/13 12:44:05;;;;;;;6.88;1.88;;;;;;;;;;5035696;28;20507;-70
2022/09/13 12:46:37;;;;;;;3.88;2.20;;;;;;;;;;5067437;28;20115;-70
2022/09/13 12:49:22;;;;;;;4.00;2.08;;;;;;;;;;5035867;28;20046;-70
2022/09/13 12:51:48;;;;;;;7.22;2.40;;;;;;;;;;5035146;28;20523;-70
2022/09/13 12:54:23;;;;;;;3.33;1.92;;;;;;;;;;5034770;28;20120;-70
2022/09/13 12:56:58;;;;;;;6.40;2.83;;;;;;;;;;5035558;28;20041;-70
2022/09/13 13:00:00;;;;;;;4.43;1.48;;;;;;;;;;5027179;28;20088;-70
2022/09/13 13:02:50;;;;;;;9.52;3.03;;;;;;;;;;4979233;28;20614;-70
2022/09/13 13:05:19;;;;;;;6.93;3.05;;;;;;;;;;5026684;28;20088;-70
2022/09/13 13:07:50;;;;;;;5.25;2.40;;;;;;;;;;5036308;28;20045;-70
2022/09/13 13:10:37;;;;;;;5.18;2.15;;;;;;;;;;5036309;28;20052;-70
2022/09/13 13:13:10;;;;;;;6.07;2.13;;;;;;;;;;5068578;28;20600;-70
2022/09/13 13:15:36;;;;;;;3.63;2.05;;;;;;;;;;5066740;28;20735;-69
2022/09/13 13:18:21;;;;;;;5.53;2.78;;;;;;;;;;5034126;28;21276;-70
2022/09/13 13:20:47;;;;;;;4.57;2.03;;;;;;;;;;5049012;28;20044;-70
2022/09/13 13:23:22;;;;;;;5.28;2.38;;;;;;;;;;5072481;28;20076;-70
2022/09/13 13:25:56;;;;;;;5.85;2.63;;;;;;;;;;5072350;28;20167;-70
2022/09/13 13:28:41;;;;;;;4.75;1.88;;;;;;;;;;5073886;28;20086;-70
2022/09/13 13:31:08;;;;;;;4.72;1.95;;;;;;;;;;5073658;28;20049;-70
2022/09/13 13:33:46;;;;;;;4.82;1.95;;;;;;;;;;5070135;28;20040;-71
2022/09/13 13:36:41;;;;;;;5.10;1.95;;;;;;;;;;5073319;28;20041;-70
2022/09/13 13:39:25;;;;;;;3.72;2.63;;;;;;;;;;4995647;28;20132;-70
2022/09/13 13:41:55;;;;;;;3.65;1.80;;;;;;;;;;5075254;28;20124;-70
2022/09/13 13:44:21;;;;;;;3.85;1.80;;;;;;;;;;5074995;28;20040;-70
2022/09/13 13:46:48;;;;;;;12.35;3.10;;;;;;;;;;5073086;28;20627;-70
2022/09/13 13:49:30;;;;;;;9.23;3.20;;;;;;;;;;5073398;28;20047;-70
2022/09/13 13:52:12;;;;;;;4.20;2.17;;;;;;;;;;5072334;28;20040;-69
2022/09/13 13:54:43;;;;;;;3.10;2.10;;;;;;;;;;5072804;28;20116;-69
2022/09/13 13:57:24;;;;;;;4.90;2.83;;;;;;;;;;5074212;28;20047;-68
2022/09/13 13:59:51;;;;;;;3.95;2.47;;;;;;;;;;5073243;28;21107;-68
2022/09/13 14:02:20;;;;;;;5.43;2.63;;;;;;;;;;5072056;28;20049;-69
2022/09/13 14:04:47;;;;;;;10.50;2.85;;;;;;;;;;5070688;28;20044;-69
2022/09/13 14:07:32;;;;;;;7.13;2.30;;;;;;;;;;5066788;28;20045;-69
2022/09/13 14:09:58;;;;;;;7.60;2.78;;;;;;;;;;5072425;28;20885;-69
2022/09/13 14:12:24;;;;;;;6.53;2.78;;;;;;;;;;5056424;28;20136;-69
2022/09/13 14:14:53;;;;;;;8.60;2.83;;;;;;;;;;5071624;28;20052;-69
2022/09/13 14:17:38;;;;;;;4.97;2.42;;;;;;;;;;5071880;28;20048;-69
2022/09/13 14:20:16;;;;;;;12.90;4.20;;;;;;;;;;5072960;28;20040;-69
2022/09/13 14:22:42;;;;;;;7.45;2.95;;;;;;;;;;5073317;28;20540;-69
2022/09/13 14:25:13;;;;;;;3.70;2.13;;;;;;;;;;5069243;28;20159;-69
2022/09/13 14:27:42;;;;;;;2.95;2.05;;;;;;;;;;5071739;28;20600;-69
2022/09/13 14:30:31;;;;;;;4.57;2.33;;;;;;;;;;5072275;28;20628;-69
2022/09/13 14:32:57;;;;;;;6.30;2.28;;;;;;;;;;5073028;28;20589;-69
2022/09/13 14:35:23;;;;;;;9.05;3.75;;;;;;;;;;5073213;28;20037;-70
2022/09/13 14:37:49;;;;;;;3.45;2.28;;;;;;;;;;5071534;28;20095;-70
2022/09/13 14:40:19;;;;;;;7.25;3.55;;;;;;;;;;5074665;28;20040;-69
2022/09/13 14:42:46;;;;;;;8.70;2.78;;;;;;;;;;5071482;28;20095;-69
2022/09/13 14:45:32;;;;;;;4.00;2.50;;;;;;;;;;5073195;28;20040;-69
2022/09/13 14:48:12;;;;;;;3.83;2.38;;;;;;;;;;5055656;28;20115;-69
2022/09/13 14:50:46;;;;;;;4.95;2.70;;;;;;;;;;5075902;28;20639;-69
2022/09/13 14:53:16;;;;;;;14.45;3.42;;;;;;;;;;5072998;28;20041;-69
2022/09/13 14:55:45;;;;;;;6.30;2.55;;;;;;;;;;5070265;28;20037;-69
2022/09/13 14:58:34;;;;;;;8.75;3.13;;;;;;;;;;5069865;28;20043;-69
2022/09/13 15:01:02;;;;;;;4.57;2.70;;;;;;;;;;5047424;28;20075;-69
2022/09/13 15:03:29;;;;;;;8.38;3.30;;;;;;;;;;5065505;28;20033;-69
2022/09/13 15:05:57;;;;;;;7.57;2.40;;;;;;;;;;5076363;28;20068;-69
2022/09/13 15:08:26;;;;;;;3.65;2.90;;;;;;;;;;5076047;28;20052;-69
2022/09/13 15:10:52;;;;;;;5.22;2.90;;;;;;;;;;5074454;28;20637;-69